Terminal Aerodrome Forecast
Issued by NWS Springfield, MO

Current Version | Previous Version | Text Only | Print | Product List | Glossary On
Versions: 1 2 3 4 5 6 7 8 9 10 11 12
000
FTUS43 KSGF 031100
TAFSGF
TAF
KSGF 031120Z 0312/0412 20004KT P6SM SCT250
     FM031500 27008KT P6SM SCT050 SCT120
     FM040000 21006KT P6SM SCT120 SCT250
     FM040300 17003KT P6SM SCT250=

USA.gov is the U.S. government's official web portal to all federal, state and local government web resources and services.